createdAt,value
2022-09-12T04:16:41.017Z,76.48
2022-09-12T04:19:07.656Z,77.30
2022-09-12T04:21:34.904Z,78.15
2022-09-12T04:24:01.572Z,77.38
2022-09-12T04:26:29.750Z,77.75
2022-09-12T04:28:57.520Z,77.44
2022-09-12T04:31:25.169Z,76.51
2022-09-12T04:33:56.640Z,76.00
2022-09-12T04:36:24.306Z,75.84
2022-09-12T04:38:52.298Z,76.21
2022-09-12T04:41:27.513Z,76.62
2022-09-12T04:44:02.092Z,77.51
2022-09-12T04:46:30.934Z,77.90
2022-09-12T04:48:57.775Z,78.83
2022-09-12T04:51:27.848Z,78.70
2022-09-12T04:53:58.159Z,78.75
2022-09-12T04:56:25.528Z,77.57
2022-09-12T04:58:52.171Z,78.07
2022-09-12T05:01:21.396Z,78.06
2022-09-12T05:03:49.170Z,79.30
2022-09-12T05:06:25.842Z,80.25
2022-09-12T05:09:01.803Z,79.66
2022-09-12T05:11:52.984Z,80.25
2022-09-12T05:14:19.283Z,80.16
2022-09-12T05:16:49.232Z,80.39
2022-09-12T05:19:16.656Z,79.56
2022-09-12T05:21:44.419Z,79.28
2022-09-12T05:24:11.543Z,78.65
2022-09-12T05:26:38.350Z,78.26
2022-09-12T05:29:06.076Z,78.96
2022-09-12T05:31:32.834Z,79.17
2022-09-12T05:33:59.370Z,79.37
2022-09-12T05:36:29.167Z,78.94
2022-09-12T05:38:56.508Z,77.99
2022-09-12T05:41:25.727Z,79.00
2022-09-12T05:44:22.807Z,80.43
2022-09-12T05:47:00.262Z,79.85
2022-09-12T05:49:26.936Z,80.31
2022-09-12T05:51:53.415Z,79.74
2022-09-12T05:54:21.170Z,79.58
2022-09-12T05:56:48.256Z,80.66
2022-09-12T05:59:20.819Z,81.05
2022-09-12T06:01:48.623Z,80.60
2022-09-12T06:04:15.782Z,80.99
2022-09-12T06:06:47.265Z,81.76
2022-09-12T06:09:15.780Z,81.68
2022-09-12T06:11:43.123Z,81.17
2022-09-12T06:14:14.330Z,81.32
2022-09-12T06:16:44.508Z,81.71
2022-09-12T06:19:16.097Z,81.74
2022-09-12T06:25:02.007Z,81.88
2022-09-12T06:27:56.627Z,81.42
2022-09-12T06:33:57.338Z,81.04
2022-09-12T06:36:48.533Z,81.78
2022-09-12T06:39:35.155Z,81.65
2022-09-12T06:46:49.759Z,81.45
2022-09-12T06:49:18.751Z,80.37
2022-09-12T06:51:46.401Z,80.95
2022-09-12T06:54:14.339Z,80.40
2022-09-12T06:56:41.036Z,80.13
2022-09-12T06:59:07.546Z,79.83
2022-09-12T07:01:34.366Z,79.76
2022-09-12T07:04:05.437Z,79.65
2022-09-12T07:06:37.729Z,79.36
2022-09-12T07:09:06.763Z,78.95
2022-09-12T07:11:35.353Z,78.59
2022-09-12T07:14:03.875Z,78.09
2022-09-12T07:16:37.966Z,77.57
2022-09-12T07:19:06.018Z,77.41
2022-09-12T07:21:32.940Z,77.83
2022-09-12T07:23:59.464Z,77.63
2022-09-12T07:42:59.607Z,74.85
2022-09-12T07:50:09.315Z,74.17
2022-09-12T07:52:41.933Z,74.17
2022-09-12T07:56:38.239Z,73.53
2022-09-12T07:59:06.157Z,73.68
2022-09-12T08:01:43.251Z,72.55
2022-09-12T08:04:09.848Z,72.58
2022-09-12T08:06:36.910Z,72.88
2022-09-12T08:09:04.252Z,71.96
2022-09-12T08:11:31.027Z,71.98
2022-09-12T08:13:58.232Z,72.31
2022-09-12T08:16:27.701Z,71.87
2022-09-12T08:18:54.521Z,71.22
2022-09-12T08:21:23.716Z,71.24
2022-09-12T08:23:59.272Z,70.49
2022-09-12T08:26:26.003Z,69.62
2022-09-12T08:28:54.557Z,69.51
2022-09-12T08:31:23.430Z,68.89
2022-09-12T08:33:50.894Z,69.12
2022-09-12T08:36:22.867Z,68.88
2022-09-12T08:38:59.305Z,68.05
2022-09-12T08:41:35.428Z,67.70
2022-09-12T08:44:34.797Z,66.89
2022-09-12T08:47:10.344Z,66.52
2022-09-12T08:49:51.601Z,65.86
2022-09-12T08:52:29.561Z,65.90
2022-09-12T08:54:56.876Z,65.14
2022-09-12T08:57:24.267Z,64.09
2022-09-12T08:59:52.885Z,63.59
2022-09-12T09:02:19.346Z,62.96
2022-09-12T09:05:34.228Z,63.00
2022-09-12T09:08:19.586Z,62.46
2022-09-12T09:11:08.538Z,61.22
2022-09-12T09:14:31.641Z,60.78
2022-09-12T09:17:00.460Z,61.00
2022-09-12T09:19:36.299Z,59.96
2022-09-12T09:22:16.037Z,59.27
2022-09-12T09:24:48.970Z,58.43
2022-09-12T09:27:39.277Z,57.36
2022-09-12T09:30:16.062Z,56.63
2022-09-12T09:32:47.588Z,55.42
2022-09-12T09:35:22.929Z,55.21
2022-09-12T09:38:01.581Z,54.03
2022-09-12T09:40:37.183Z,53.77
2022-09-12T09:43:19.907Z,54.26
2022-09-12T09:45:47.926Z,53.60
2022-09-12T09:48:35.301Z,53.96
2022-09-12T09:51:03.957Z,53.97
2022-09-12T09:57:46.680Z,52.89
2022-09-12T10:00:27.317Z,51.83
2022-09-12T10:03:04.854Z,51.14
2022-09-12T10:05:35.658Z,49.76
2022-09-12T10:08:35.300Z,49.31
2022-09-12T10:11:18.551Z,49.33
2022-09-12T10:17:58.774Z,48.04
2022-09-12T10:24:48.895Z,48.59
2022-09-12T10:27:28.155Z,47.92
2022-09-12T10:29:56.631Z,49.04
2022-09-12T10:32:31.131Z,47.86
2022-09-12T10:35:08.948Z,47.24
2022-09-12T10:37:39.513Z,47.72
2022-09-12T10:40:59.916Z,45.30
2022-09-12T10:44:28.911Z,42.96
2022-09-12T10:47:21.512Z,42.51
2022-09-12T10:50:30.870Z,42.97
2022-09-12T10:53:14.693Z,40.06
2022-09-12T10:56:12.268Z,39.85
2022-09-12T10:59:19.411Z,37.65
2022-09-12T11:01:50.572Z,36.83
2022-09-12T11:05:09.565Z,35.68
2022-09-12T11:07:46.764Z,35.97
2022-09-12T11:11:16.279Z,33.29
2022-09-12T11:14:15.169Z,32.83
2022-09-12T11:16:52.361Z,31.72
2022-09-12T11:23:40.592Z,30.43
2022-09-12T11:27:01.843Z,29.99
2022-09-12T11:29:49.484Z,28.99
2022-09-12T11:32:36.375Z,28.07
2022-09-12T11:35:29.443Z,27.43
2022-09-12T11:38:14.887Z,27.16
2022-09-12T11:40:48.329Z,26.62
2022-09-12T11:43:54.372Z,25.83
2022-09-12T11:51:33.835Z,26.87
2022-09-12T11:54:06.589Z,26.46
2022-09-12T11:56:37.164Z,25.38
2022-09-12T11:59:31.782Z,25.60
2022-09-12T12:02:00.154Z,24.49
2022-09-12T12:04:37.723Z,25.54
2022-09-12T12:07:07.835Z,26.98
2022-09-12T12:09:34.496Z,26.14
2022-09-12T12:12:54.672Z,25.21
2022-09-12T12:15:22.912Z,23.84
2022-09-12T12:18:15.215Z,23.70
2022-09-12T12:20:48.114Z,22.51
2022-09-12T12:23:34.778Z,22.29
2022-09-12T12:26:04.785Z,23.13
2022-09-12T12:28:49.442Z,22.00
2022-09-12T12:31:17.305Z,21.43
2022-09-12T12:33:43.887Z,20.78
2022-09-12T12:36:29.106Z,21.41
2022-09-12T12:38:55.547Z,20.86
2022-09-12T12:41:22.691Z,22.21
2022-09-12T12:43:51.205Z,21.96
2022-09-12T12:46:23.187Z,21.85
2022-09-12T12:48:52.625Z,23.07
2022-09-12T12:51:46.429Z,23.02
2022-09-12T12:54:29.831Z,22.54
2022-09-12T12:57:29.878Z,22.80
2022-09-12T13:00:02.003Z,22.19
2022-09-12T13:02:37.236Z,22.93
2022-09-12T13:05:16.279Z,23.00
2022-09-12T13:07:44.895Z,21.87
2022-09-12T13:10:24.087Z,21.35
2022-09-12T13:16:52.880Z,20.79
2022-09-12T13:19:26.214Z,23.09
2022-09-12T13:22:00.292Z,24.24
2022-09-12T13:24:27.016Z,23.31
2022-09-12T13:26:53.809Z,22.60
2022-09-12T13:30:23.039Z,21.45
2022-09-12T13:32:49.855Z,19.29
2022-09-12T13:35:42.793Z,18.29
2022-09-12T13:38:44.504Z,19.77
2022-09-12T13:41:53.267Z,21.35
2022-09-12T13:44:21.627Z,23.10
2022-09-12T13:46:49.023Z,23.87
2022-09-12T13:49:37.000Z,23.19
2022-09-12T13:52:07.192Z,23.47
2022-09-12T13:54:58.735Z,22.90
2022-09-12T13:57:37.572Z,21.67
2022-09-12T14:00:20.229Z,21.50
2022-09-12T14:02:48.142Z,22.51
2022-09-12T14:05:26.192Z,22.42
2022-09-12T14:08:08.648Z,21.45
2022-09-12T14:10:39.666Z,20.88
2022-09-12T14:13:11.962Z,20.83
2022-09-12T14:15:44.188Z,22.08
2022-09-12T14:18:38.653Z,22.33
2022-09-12T14:21:11.228Z,25.02
2022-09-12T14:23:43.162Z,24.45
2022-09-12T14:26:13.316Z,23.75
2022-09-12T14:29:05.609Z,24.56
2022-09-12T14:31:37.652Z,24.37
2022-09-12T14:34:18.839Z,25.70
2022-09-12T14:36:58.909Z,25.83
2022-09-12T14:39:30.861Z,25.18
2022-09-12T14:42:07.201Z,25.13
2022-09-12T14:44:35.486Z,24.31
2022-09-12T14:47:13.764Z,22.83
2022-09-12T14:49:48.541Z,23.65
2022-09-12T14:52:23.367Z,24.60
2022-09-12T14:55:16.441Z,23.85
2022-09-12T14:58:27.597Z,25.95
2022-09-12T15:01:22.931Z,27.55
2022-09-12T15:03:51.917Z,27.11
2022-09-12T15:06:30.356Z,26.08
2022-09-12T15:09:54.270Z,28.46
2022-09-12T15:12:20.908Z,28.20
2022-09-12T15:14:47.642Z,28.50
2022-09-12T15:17:14.280Z,29.39
2022-09-12T15:19:40.768Z,30.45
2022-09-12T15:22:09.509Z,31.71
2022-09-12T15:24:39.315Z,32.44
2022-09-12T15:27:31.711Z,32.63
2022-09-12T15:29:58.985Z,33.09
2022-09-12T15:32:28.404Z,32.89
2022-09-12T15:34:55.227Z,32.64
2022-09-12T15:37:49.617Z,32.65
2022-09-12T15:40:16.848Z,32.50
2022-09-12T15:42:43.877Z,32.11
2022-09-12T15:45:18.632Z,32.54
2022-09-12T15:47:45.290Z,32.59
2022-09-12T15:50:11.786Z,32.69
2022-09-12T15:52:39.154Z,32.97
2022-09-12T15:55:09.752Z,32.44
2022-09-12T15:57:38.135Z,33.10
2022-09-12T16:00:05.886Z,33.93
2022-09-12T16:02:38.284Z,33.84
2022-09-12T16:05:05.849Z,34.72
2022-09-12T16:07:32.321Z,34.44
2022-09-12T16:09:58.809Z,32.97
2022-09-12T16:12:25.270Z,33.89
2022-09-12T16:14:59.358Z,34.25
2022-09-12T16:17:25.809Z,33.21
2022-09-12T16:19:53.552Z,32.95
2022-09-12T16:22:19.987Z,32.88
2022-09-12T16:24:46.448Z,33.44
2022-09-12T16:27:12.962Z,34.29
2022-09-12T16:29:39.455Z,33.92
2022-09-12T16:36:30.335Z,35.33
2022-09-12T16:38:56.831Z,35.56
2022-09-12T16:41:25.079Z,36.19
2022-09-12T16:43:52.123Z,36.28
2022-09-12T16:46:21.238Z,37.01
2022-09-12T16:48:52.453Z,36.51
2022-09-12T16:51:25.890Z,36.78
2022-09-12T16:53:52.638Z,37.54
2022-09-12T16:56:19.376Z,37.48
2022-09-12T16:58:46.431Z,37.77
2022-09-12T17:01:16.423Z,37.11
2022-09-12T17:03:43.415Z,37.74
2022-09-12T17:06:16.494Z,37.74
2022-09-12T17:08:45.473Z,37.50
2022-09-12T17:11:34.028Z,37.46
2022-09-12T17:14:06.520Z,37.48
2022-09-12T17:16:35.776Z,38.06
2022-09-12T17:19:02.532Z,37.75
2022-09-12T17:21:29.075Z,37.63
2022-09-12T17:23:55.936Z,37.95
2022-09-12T17:26:28.487Z,37.88
2022-09-12T17:28:55.182Z,38.34
2022-09-12T17:32:16.940Z,38.54
2022-09-12T17:35:34.246Z,38.00
2022-09-12T17:38:01.297Z,38.86
2022-09-12T17:40:48.658Z,38.74
2022-09-12T17:44:09.659Z,38.80
2022-09-12T17:46:41.129Z,39.59
2022-09-12T17:49:12.252Z,40.06
2022-09-12T17:51:40.635Z,40.82
2022-09-12T17:54:11.779Z,41.37
2022-09-12T17:56:39.099Z,42.65
2022-09-12T17:59:07.778Z,43.10
2022-09-12T18:01:57.938Z,43.52
2022-09-12T18:04:24.672Z,43.91
2022-09-12T18:06:51.167Z,43.79
2022-09-12T18:09:26.987Z,43.89
2022-09-12T18:11:53.682Z,44.66
2022-09-12T18:14:20.850Z,45.09
2022-09-12T18:16:47.936Z,45.43
2022-09-12T18:19:16.753Z,45.77
2022-09-12T18:22:13.340Z,46.08
2022-09-12T18:24:41.853Z,46.63
2022-09-12T18:27:08.430Z,46.83
2022-09-12T18:29:34.900Z,46.84
2022-09-12T18:32:01.611Z,47.33
2022-09-12T18:34:28.268Z,47.24
2022-09-12T18:36:54.847Z,47.47
2022-09-12T18:40:02.571Z,47.44
2022-09-12T18:45:17.494Z,47.91
2022-09-12T18:47:48.663Z,48.29
2022-09-12T18:50:15.239Z,48.30
2022-09-12T18:52:41.877Z,48.43
2022-09-12T18:55:09.124Z,48.82
2022-09-12T18:57:35.606Z,49.50
2022-09-12T19:00:04.152Z,50.33
2022-09-12T19:02:34.912Z,50.49
2022-09-12T19:05:03.558Z,51.02
2022-09-12T19:07:29.991Z,51.26
2022-09-12T19:09:56.392Z,51.63
2022-09-12T19:12:22.883Z,52.17
2022-09-12T19:14:49.324Z,52.72
2022-09-12T19:17:17.438Z,53.46
2022-09-12T19:19:46.034Z,53.22
2022-09-12T19:22:44.246Z,53.31
2022-09-12T19:25:23.909Z,53.13
2022-09-12T19:27:50.347Z,53.51
2022-09-12T19:30:16.981Z,53.74
2022-09-12T19:32:44.523Z,53.65
2022-09-12T19:35:12.789Z,53.79
2022-09-12T19:37:39.237Z,54.15
2022-09-12T19:40:07.391Z,54.17
2022-09-12T19:42:34.056Z,54.21
2022-09-12T19:45:00.535Z,54.59
2022-09-12T19:47:28.164Z,55.05
2022-09-12T19:49:54.673Z,55.45
2022-09-12T19:52:21.163Z,55.50
2022-09-12T19:54:48.041Z,55.55
2022-09-12T19:57:14.413Z,55.56
2022-09-12T19:59:41.971Z,55.73
2022-09-12T20:02:08.541Z,55.87
2022-09-12T20:04:35.175Z,56.05
2022-09-12T20:07:01.683Z,56.34
2022-09-12T20:09:28.175Z,56.13
2022-09-12T20:11:54.583Z,56.75
2022-09-12T20:14:22.132Z,56.50
2022-09-12T20:17:13.728Z,56.81
2022-09-12T20:19:40.237Z,56.69
2022-09-12T20:22:07.438Z,57.24
2022-09-12T20:24:34.527Z,57.82
2022-09-12T20:27:01.060Z,58.22
2022-09-12T20:29:27.538Z,57.53
2022-09-12T20:31:54.044Z,57.89
2022-09-12T20:34:21.327Z,57.08
2022-09-12T20:36:48.368Z,57.51
2022-09-12T20:39:19.755Z,56.99
2022-09-12T20:41:46.875Z,57.19
2022-09-12T20:44:13.734Z,57.50
2022-09-12T20:46:40.857Z,57.69
2022-09-12T20:49:08.814Z,58.50
2022-09-12T20:51:36.436Z,58.69
2022-09-12T20:54:07.950Z,58.65
2022-09-12T20:56:36.262Z,59.34
2022-09-12T20:59:04.362Z,59.44
2022-09-12T21:01:31.687Z,59.58
2022-09-12T21:03:59.739Z,59.65
2022-09-12T21:06:26.798Z,59.59
2022-09-12T21:08:54.717Z,60.08
2022-09-12T21:11:21.415Z,60.26
2022-09-12T21:13:47.901Z,60.13
2022-09-12T21:16:17.209Z,60.66
2022-09-12T21:18:44.429Z,60.40
2022-09-12T21:21:13.554Z,60.43
2022-09-12T21:23:41.178Z,60.98
2022-09-12T21:26:08.492Z,61.09
2022-09-12T21:28:35.715Z,61.15
2022-09-12T21:31:02.293Z,61.48
2022-09-12T21:33:29.844Z,61.27
2022-09-12T21:36:02.644Z,61.37
2022-09-12T21:38:30.616Z,61.66
2022-09-12T21:41:05.236Z,61.81
2022-09-12T21:43:31.639Z,61.94
2022-09-12T21:45:59.375Z,61.78
2022-09-12T21:48:26.413Z,61.99
2022-09-12T21:50:52.875Z,62.27
2022-09-12T21:53:19.409Z,62.14
2022-09-12T21:55:45.928Z,62.79
2022-09-12T21:58:12.347Z,63.00
